createdAt,value
2018-07-25T00:02:25.865Z,96.50
2018-07-25T00:04:53.717Z,96.30
2018-07-25T00:07:21.716Z,96.60
2018-07-25T00:09:49.714Z,96.90
2018-07-25T00:12:17.693Z,97.20
2018-07-25T00:14:45.748Z,97.20
2018-07-25T00:17:13.682Z,97.20
2018-07-25T00:22:09.390Z,97.20
2018-07-25T00:24:37.853Z,97.00
2018-07-25T00:27:05.833Z,96.80
2018-07-25T00:29:33.850Z,97.10
2018-07-25T00:32:01.879Z,96.80
2018-07-25T00:34:29.781Z,97.30
2018-07-25T00:36:57.716Z,97.30
2018-07-25T00:39:25.631Z,97.70
2018-07-25T00:41:53.611Z,97.70
2018-07-25T00:44:21.822Z,97.40
2018-07-25T00:46:49.633Z,97.50
2018-07-25T00:49:17.579Z,97.30
2018-07-25T00:51:45.470Z,97.70
2018-07-25T00:54:13.415Z,97.90
2018-07-25T00:56:41.378Z,97.80
2018-07-25T00:59:09.410Z,97.50
2018-07-25T01:01:37.371Z,97.80
2018-07-25T01:04:05.236Z,97.90
2018-07-25T01:06:33.155Z,97.80
2018-07-25T01:09:01.306Z,97.90
2018-07-25T01:13:56.827Z,98.30
2018-07-25T01:16:24.729Z,98.30
2018-07-25T01:18:52.598Z,98.10
2018-07-25T01:21:20.577Z,98.30
2018-07-25T01:23:48.469Z,98.50
2018-07-25T01:26:16.878Z,98.90
2018-07-25T01:28:44.771Z,98.90
2018-07-25T01:31:12.681Z,99.30
2018-07-25T01:33:40.655Z,99.00
2018-07-25T01:36:08.697Z,99.20
2018-07-25T01:38:36.581Z,99.30
2018-07-25T01:41:04.502Z,99.30
2018-07-25T01:46:00.121Z,99.10
2018-07-25T01:48:28.000Z,99.10
2018-07-25T01:50:55.897Z,99.00
2018-07-25T01:53:23.784Z,99.00
2018-07-25T01:55:51.700Z,98.80
2018-07-25T01:58:19.547Z,99.00
2018-07-25T02:00:48.006Z,98.90
2018-07-25T02:03:17.264Z,99.10
2018-07-25T02:05:45.274Z,99.20
2018-07-25T02:08:13.121Z,99.40
2018-07-25T02:10:45.921Z,99.10
2018-07-25T02:13:16.170Z,99.00
2018-07-25T02:15:44.459Z,99.20
2018-07-25T02:18:12.401Z,99.20
2018-07-25T02:20:40.388Z,99.20
2018-07-25T02:23:08.285Z,99.30
2018-07-25T02:25:36.175Z,99.30
2018-07-25T02:28:04.065Z,99.30
2018-07-25T02:30:31.889Z,99.30
2018-07-25T02:32:59.757Z,99.60
2018-07-25T02:35:27.768Z,99.70
2018-07-25T02:37:55.753Z,99.50
2018-07-25T02:40:23.723Z,99.80
2018-07-25T02:45:19.308Z,99.80
2018-07-25T02:47:47.182Z,99.90
2018-07-25T02:50:15.037Z,99.90
2018-07-25T02:52:42.931Z,99.90
2018-07-25T02:55:10.882Z,99.90
2018-07-25T02:57:38.786Z,99.90
2018-07-25T03:00:07.242Z,99.90
2018-07-25T03:02:35.249Z,99.90
2018-07-25T03:05:03.205Z,99.90
2018-07-25T03:07:31.127Z,99.90
2018-07-25T03:09:58.961Z,99.90
2018-07-25T03:12:26.894Z,99.90
2018-07-25T03:14:54.719Z,99.90
2018-07-25T03:17:22.641Z,99.90
2018-07-25T03:19:50.549Z,99.90
2018-07-25T03:22:18.477Z,99.90
2018-07-25T03:24:46.416Z,99.90
2018-07-25T03:27:14.345Z,99.90
2018-07-25T03:29:42.244Z,99.90
2018-07-25T03:32:10.153Z,99.90
2018-07-25T03:34:38.032Z,99.90
2018-07-25T03:37:05.981Z,99.90
2018-07-25T03:39:33.893Z,99.90
2018-07-25T03:42:01.806Z,99.90
2018-07-25T03:46:57.723Z,99.90
2018-07-25T03:49:25.629Z,99.90
2018-07-25T03:51:53.487Z,99.90
2018-07-25T03:54:21.377Z,99.90
2018-07-25T03:56:49.286Z,99.90
2018-07-25T03:59:17.238Z,99.90
2018-07-25T04:01:45.152Z,99.90
2018-07-25T04:04:12.968Z,99.90
2018-07-25T04:06:40.900Z,99.90
2018-07-25T04:09:09.221Z,99.90
2018-07-25T04:11:37.535Z,99.90
2018-07-25T04:14:05.589Z,99.90
2018-07-25T04:16:33.611Z,99.90
2018-07-25T04:19:01.499Z,99.90
2018-07-25T04:21:29.407Z,99.90
2018-07-25T04:23:57.347Z,99.90
2018-07-25T04:26:25.452Z,99.90
2018-07-25T04:28:53.379Z,99.90
2018-07-25T04:31:21.236Z,99.90
2018-07-25T04:33:49.108Z,99.90
2018-07-25T04:36:17.092Z,99.90
2018-07-25T04:38:45.039Z,99.90
2018-07-25T04:41:13.025Z,99.90
2018-07-25T04:43:40.889Z,99.90
2018-07-25T04:46:08.941Z,99.90
2018-07-25T04:48:36.778Z,99.90
2018-07-25T04:51:04.710Z,99.90
2018-07-25T04:53:32.737Z,99.90
2018-07-25T04:56:00.756Z,99.90
2018-07-25T04:58:29.164Z,99.90
2018-07-25T05:00:58.487Z,99.90
2018-07-25T05:03:27.294Z,99.90
2018-07-25T05:05:56.856Z,99.90
2018-07-25T05:08:24.773Z,99.90
2018-07-25T05:10:53.305Z,99.90
2018-07-25T05:13:21.260Z,99.90
2018-07-25T05:15:49.723Z,99.90
2018-07-25T05:18:19.564Z,99.90
2018-07-25T05:20:48.304Z,99.90
2018-07-25T05:23:17.227Z,99.90
2018-07-25T05:25:45.753Z,99.90
2018-07-25T05:28:14.372Z,99.90
2018-07-25T05:30:42.263Z,99.90
2018-07-25T05:33:10.172Z,99.90
2018-07-25T05:35:39.198Z,99.90
2018-07-25T05:38:07.704Z,99.80
2018-07-25T05:40:35.726Z,99.30
2018-07-25T05:43:04.390Z,99.20
2018-07-25T05:45:32.431Z,98.70
2018-07-25T05:48:01.292Z,98.80
2018-07-25T05:50:30.151Z,98.50
2018-07-25T05:52:58.119Z,98.50
2018-07-25T05:55:26.064Z,98.30
2018-07-25T05:57:54.006Z,98.20
2018-07-25T06:00:22.531Z,98.20
2018-07-25T06:02:51.274Z,98.10
2018-07-25T06:05:19.220Z,97.70
2018-07-25T06:07:47.718Z,97.50
2018-07-25T06:10:16.884Z,97.10
2018-07-25T06:12:45.548Z,96.60
2018-07-25T06:15:13.515Z,96.20
2018-07-25T06:17:41.875Z,95.70
2018-07-25T06:20:10.524Z,95.60
2018-07-25T06:22:41.306Z,95.60
2018-07-25T06:25:09.242Z,95.50
2018-07-25T06:27:37.194Z,95.40
2018-07-25T06:30:06.244Z,95.10
2018-07-25T06:32:34.236Z,94.80
2018-07-25T06:37:32.468Z,94.30
2018-07-25T06:40:01.033Z,94.00
2018-07-25T06:42:29.000Z,93.30
2018-07-25T06:44:57.511Z,93.10
2018-07-25T06:47:27.016Z,92.80
2018-07-25T06:49:55.438Z,91.90
2018-07-25T06:52:31.919Z,91.60
2018-07-25T06:54:59.784Z,91.20
2018-07-25T06:57:28.611Z,90.40
2018-07-25T06:59:56.502Z,90.10
2018-07-25T07:02:25.011Z,89.40
2018-07-25T07:04:52.898Z,88.90
2018-07-25T07:07:20.785Z,86.50
2018-07-25T07:09:48.722Z,86.60
2018-07-25T07:12:16.570Z,85.90
2018-07-25T07:14:44.494Z,85.40
2018-07-25T07:17:12.559Z,83.00
2018-07-25T07:19:40.687Z,82.90
2018-07-25T07:22:08.679Z,81.90
2018-07-25T07:24:36.605Z,81.70
2018-07-25T07:27:04.505Z,80.60
2018-07-25T07:29:33.316Z,80.40
2018-07-25T07:32:01.266Z,80.10
2018-07-25T07:34:29.863Z,78.60
2018-07-25T07:36:57.813Z,77.30
2018-07-25T07:39:25.677Z,74.70
2018-07-25T07:41:53.626Z,70.50
2018-07-25T07:44:22.667Z,64.60
2018-07-25T07:46:50.576Z,58.20
2018-07-25T07:49:18.456Z,52.90
2018-07-25T07:51:47.293Z,49.30
2018-07-25T07:54:15.104Z,45.80
2018-07-25T07:56:42.998Z,44.10
2018-07-25T08:01:40.637Z,39.00
2018-07-25T08:04:08.494Z,38.30
2018-07-25T08:06:38.191Z,36.80
2018-07-25T08:09:09.003Z,34.90
2018-07-25T08:11:37.623Z,34.30
2018-07-25T08:14:06.107Z,33.10
2018-07-25T08:16:33.970Z,32.90
2018-07-25T08:19:01.789Z,32.00
2018-07-25T08:21:29.765Z,31.50
2018-07-25T08:23:57.535Z,32.30
2018-07-25T08:26:26.056Z,31.30
2018-07-25T08:28:53.851Z,31.50
2018-07-25T08:33:49.471Z,30.50
2018-07-25T08:36:17.603Z,30.20
2018-07-25T08:38:46.098Z,30.50
2018-07-25T08:41:14.107Z,30.40
2018-07-25T08:43:42.437Z,30.00
2018-07-25T08:46:11.324Z,29.40
2018-07-25T08:48:40.069Z,29.20
2018-07-25T08:51:07.971Z,28.90
2018-07-25T08:53:36.780Z,28.60
2018-07-25T08:56:04.934Z,28.40
2018-07-25T08:58:33.625Z,28.60
2018-07-25T09:01:02.583Z,28.60
2018-07-25T09:03:30.433Z,28.90
2018-07-25T09:05:58.263Z,29.60
2018-07-25T09:08:27.014Z,29.20
2018-07-25T09:10:54.897Z,28.50
2018-07-25T09:13:23.331Z,28.00
2018-07-25T09:15:51.785Z,27.50
2018-07-25T09:18:20.321Z,27.60
2018-07-25T09:20:49.012Z,27.20
2018-07-25T09:23:18.320Z,27.40
2018-07-25T09:25:47.001Z,28.20
2018-07-25T09:28:14.805Z,28.30
2018-07-25T09:30:42.680Z,28.20
2018-07-25T09:33:11.692Z,27.90
2018-07-25T09:35:39.556Z,27.60
2018-07-25T09:38:07.475Z,27.60
2018-07-25T09:40:36.415Z,27.70
2018-07-25T09:43:04.284Z,28.20
2018-07-25T09:45:33.571Z,27.70
2018-07-25T09:48:02.000Z,27.80
2018-07-25T09:50:29.852Z,27.70
2018-07-25T09:52:59.019Z,27.30
2018-07-25T09:55:26.904Z,26.90
2018-07-25T09:57:54.725Z,27.20
2018-07-25T10:00:28.047Z,27.00
2018-07-25T10:02:55.880Z,26.60
2018-07-25T10:05:24.470Z,25.90
2018-07-25T10:07:52.297Z,25.40
2018-07-25T10:10:20.184Z,25.40
2018-07-25T10:12:48.047Z,25.90
2018-07-25T10:15:16.000Z,26.40
2018-07-25T10:17:43.825Z,26.30
2018-07-25T10:20:11.689Z,26.00
2018-07-25T10:22:39.643Z,26.80
2018-07-25T10:25:07.593Z,27.10
2018-07-25T10:27:35.490Z,26.90
2018-07-25T10:30:03.777Z,26.60
2018-07-25T10:32:31.626Z,26.80
2018-07-25T10:34:59.396Z,26.90
2018-07-25T10:37:27.238Z,26.70
2018-07-25T10:39:55.074Z,26.60
2018-07-25T10:42:22.997Z,26.30
2018-07-25T10:44:50.826Z,26.10
2018-07-25T10:47:18.670Z,26.00
2018-07-25T10:49:46.450Z,25.50
2018-07-25T10:52:14.261Z,25.40
2018-07-25T10:54:43.918Z,25.30
2018-07-25T10:57:11.829Z,24.50
2018-07-25T10:59:39.706Z,24.40
2018-07-25T11:02:07.613Z,24.40
2018-07-25T11:04:35.472Z,24.60
2018-07-25T11:07:03.356Z,24.50
2018-07-25T11:09:31.388Z,24.40
2018-07-25T11:11:59.251Z,24.90
2018-07-25T11:14:27.106Z,25.50
2018-07-25T11:17:01.558Z,26.10
2018-07-25T11:19:30.854Z,26.50
2018-07-25T11:21:59.810Z,27.80
2018-07-25T11:24:30.425Z,28.60
2018-07-25T11:26:58.787Z,29.90
2018-07-25T11:29:26.720Z,29.90
2018-07-25T11:31:56.130Z,28.50
2018-07-25T11:34:23.919Z,27.40
2018-07-25T11:36:51.876Z,26.80
2018-07-25T11:39:19.829Z,26.20
2018-07-25T11:41:47.919Z,25.50
2018-07-25T11:44:15.921Z,24.80
2018-07-25T11:46:44.420Z,24.30
2018-07-25T11:49:12.277Z,24.10
2018-07-25T11:51:40.186Z,24.00
2018-07-25T11:54:09.096Z,24.00
2018-07-25T11:56:37.974Z,24.20
2018-07-25T11:59:06.276Z,23.90
2018-07-25T12:01:34.257Z,24.10
2018-07-25T12:06:29.976Z,24.20
2018-07-25T12:08:57.896Z,24.40
2018-07-25T12:11:26.500Z,24.40
2018-07-25T12:13:54.381Z,25.00
2018-07-25T12:16:22.226Z,24.80
2018-07-25T12:18:51.358Z,24.50
2018-07-25T12:21:19.302Z,24.60
2018-07-25T12:28:44.089Z,24.80
2018-07-25T12:31:12.499Z,25.10
2018-07-25T12:33:40.917Z,25.60
2018-07-25T12:36:08.921Z,25.90
2018-07-25T12:38:36.617Z,26.20
2018-07-25T12:41:04.325Z,26.60
2018-07-25T12:43:32.686Z,26.70
2018-07-25T12:46:00.363Z,27.00
2018-07-25T12:48:28.917Z,27.70
2018-07-25T12:50:56.490Z,27.70
2018-07-25T12:53:24.172Z,27.70
2018-07-25T12:55:51.822Z,27.50
2018-07-25T12:58:20.081Z,27.40
2018-07-25T13:00:47.728Z,27.60
2018-07-25T13:03:16.744Z,27.60
2018-07-25T13:05:44.400Z,27.80
2018-07-25T13:08:12.133Z,28.00
2018-07-25T13:10:39.942Z,27.90
2018-07-25T13:13:08.259Z,27.80
2018-07-25T13:15:39.087Z,27.80
2018-07-25T13:18:07.349Z,27.10
2018-07-25T13:20:35.677Z,26.90
2018-07-25T13:23:03.413Z,27.00
2018-07-25T13:25:31.020Z,27.50
2018-07-25T13:27:58.734Z,28.00
2018-07-25T13:30:26.460Z,28.50
2018-07-25T13:32:54.159Z,29.00
2018-07-25T13:35:21.919Z,28.80
2018-07-25T13:37:49.632Z,28.30
2018-07-25T13:40:17.302Z,28.30
2018-07-25T13:42:45.955Z,28.10
2018-07-25T13:45:13.655Z,27.80
2018-07-25T13:47:41.314Z,27.40
2018-07-25T13:50:09.036Z,27.60
2018-07-25T13:52:36.680Z,27.90
2018-07-25T13:55:05.427Z,28.10
2018-07-25T13:57:33.641Z,28.30
2018-07-25T14:00:01.398Z,28.90
2018-07-25T14:02:32.007Z,29.00
2018-07-25T14:04:59.690Z,28.90
2018-07-25T14:07:27.425Z,29.00
2018-07-25T14:09:55.120Z,29.30
2018-07-25T14:12:23.557Z,29.70
2018-07-25T14:14:51.843Z,29.90
2018-07-25T14:17:19.538Z,29.70
2018-07-25T14:19:47.191Z,29.50
2018-07-25T14:22:14.905Z,29.10
2018-07-25T14:27:10.310Z,27.50
2018-07-25T14:29:38.604Z,27.70
2018-07-25T14:34:33.872Z,28.40
2018-07-25T14:37:02.480Z,28.20
2018-07-25T14:39:30.163Z,28.70
2018-07-25T14:44:26.207Z,28.50
2018-07-25T14:46:53.925Z,28.90
2018-07-25T14:49:21.538Z,29.20
2018-07-25T14:51:49.346Z,30.00
2018-07-25T14:54:17.035Z,31.00
2018-07-25T14:56:44.758Z,31.90
2018-07-25T14:59:12.438Z,32.70
2018-07-25T15:01:40.091Z,33.40
2018-07-25T15:04:07.819Z,34.50
2018-07-25T15:06:35.513Z,37.00
2018-07-25T15:09:05.222Z,38.90
2018-07-25T15:11:32.904Z,40.30
2018-07-25T15:14:00.696Z,42.30
2018-07-25T15:16:29.040Z,44.00
2018-07-25T15:18:57.607Z,45.50
2018-07-25T15:21:28.505Z,47.10
2018-07-25T15:24:01.879Z,49.10
2018-07-25T15:28:58.127Z,49.50
2018-07-25T15:33:53.431Z,47.70
2018-07-25T15:36:32.430Z,47.60
2018-07-25T15:39:00.145Z,46.70
2018-07-25T15:43:57.024Z,46.00
2018-07-25T15:46:25.279Z,45.50
2018-07-25T15:48:53.200Z,45.90
2018-07-25T15:51:20.950Z,46.50
2018-07-25T15:53:48.600Z,46.30
2018-07-25T15:56:16.348Z,46.20
2018-07-25T15:58:44.008Z,47.10
2018-07-25T16:01:12.327Z,47.10
2018-07-25T16:03:41.012Z,50.70
2018-07-25T16:06:10.661Z,52.80
2018-07-25T16:08:38.860Z,54.70
2018-07-25T16:11:06.834Z,55.40
2018-07-25T16:13:35.469Z,56.70
2018-07-25T16:16:04.269Z,57.50
2018-07-25T16:18:31.989Z,58.10
2018-07-25T16:20:59.654Z,58.70
2018-07-25T16:23:27.291Z,58.70
2018-07-25T16:25:54.974Z,59.50
2018-07-25T16:28:22.703Z,60.80
2018-07-25T16:30:50.349Z,61.40
2018-07-25T16:33:18.014Z,60.80
2018-07-25T16:35:45.719Z,59.40
2018-07-25T16:38:14.344Z,58.80
2018-07-25T16:40:42.062Z,58.40
2018-07-25T16:43:09.748Z,57.80
2018-07-25T16:45:37.430Z,56.80
2018-07-25T16:48:05.172Z,56.60
2018-07-25T16:50:32.957Z,56.60
2018-07-25T16:53:00.612Z,56.50
2018-07-25T16:55:28.295Z,56.00
2018-07-25T16:57:56.983Z,55.70
2018-07-25T17:00:24.937Z,55.40
2018-07-25T17:02:52.672Z,55.20
2018-07-25T17:05:20.832Z,55.20
2018-07-25T17:07:48.594Z,54.90
2018-07-25T17:10:17.108Z,55.00
2018-07-25T17:12:44.819Z,54.70
2018-07-25T17:15:13.536Z,54.90
2018-07-25T17:17:41.248Z,54.60
2018-07-25T17:20:08.999Z,54.70
2018-07-25T17:22:36.725Z,54.70
2018-07-25T17:25:04.549Z,54.80
2018-07-25T17:27:32.312Z,54.60
2018-07-25T17:30:00.050Z,54.50
2018-07-25T17:32:28.814Z,54.30
2018-07-25T17:34:56.841Z,54.20
2018-07-25T17:37:25.045Z,54.60
2018-07-25T17:39:53.038Z,55.00
2018-07-25T17:42:21.050Z,55.40
2018-07-25T17:44:49.657Z,56.10
2018-07-25T17:47:17.613Z,56.80
2018-07-25T17:49:45.522Z,57.30
2018-07-25T17:52:14.165Z,57.60
2018-07-25T17:54:42.826Z,58.30
2018-07-25T17:57:10.955Z,58.50
2018-07-25T18:02:06.682Z,59.20
2018-07-25T18:04:36.442Z,59.30
2018-07-25T18:07:04.451Z,59.60
2018-07-25T18:09:33.646Z,60.40
2018-07-25T18:12:01.671Z,61.00
2018-07-25T18:14:29.580Z,61.40
2018-07-25T18:16:57.289Z,62.00
2018-07-25T18:19:24.921Z,63.40
2018-07-25T18:21:52.618Z,63.80
2018-07-25T18:24:20.460Z,64.60
2018-07-25T18:26:48.248Z,65.60
2018-07-25T18:29:16.050Z,66.30
2018-07-25T18:31:43.763Z,67.20
2018-07-25T18:34:12.037Z,68.20
2018-07-25T18:36:39.787Z,68.70
2018-07-25T18:39:09.969Z,70.20
2018-07-25T18:41:38.161Z,71.20
2018-07-25T18:44:06.293Z,73.60
2018-07-25T18:46:34.597Z,74.90
2018-07-25T18:49:02.732Z,76.70
2018-07-25T18:51:31.046Z,77.90
2018-07-25T18:53:58.770Z,78.80
2018-07-25T18:56:26.779Z,80.50
2018-07-25T19:01:23.512Z,82.80
2018-07-25T19:03:51.969Z,83.10
2018-07-25T19:06:19.698Z,84.20
2018-07-25T19:08:47.448Z,84.30
2018-07-25T19:11:15.227Z,86.10
2018-07-25T19:13:50.568Z,87.30
2018-07-25T19:16:18.568Z,87.40
2018-07-25T19:18:46.307Z,86.40
2018-07-25T19:21:14.863Z,83.10
2018-07-25T19:23:42.863Z,81.70
2018-07-25T19:26:10.727Z,81.50
2018-07-25T19:28:38.737Z,81.70
2018-07-25T19:31:06.797Z,81.40
2018-07-25T19:33:34.795Z,81.80
2018-07-25T19:36:02.824Z,82.40
2018-07-25T19:38:31.095Z,83.10
2018-07-25T19:40:59.572Z,83.30
2018-07-25T19:43:27.614Z,83.10
2018-07-25T19:45:56.029Z,83.90
2018-07-25T19:48:25.016Z,84.20
2018-07-25T19:50:53.094Z,84.60
2018-07-25T19:53:21.307Z,85.10
2018-07-25T19:55:49.519Z,85.20
2018-07-25T19:58:17.485Z,85.80
2018-07-25T20:00:45.863Z,86.00
2018-07-25T20:03:14.307Z,86.20
2018-07-25T20:05:43.180Z,86.60
2018-07-25T20:08:12.093Z,86.90
2018-07-25T20:10:40.573Z,87.70
2018-07-25T20:13:08.849Z,88.10
2018-07-25T20:15:42.738Z,88.90
2018-07-25T20:18:10.825Z,88.70
2018-07-25T20:20:43.796Z,88.90
2018-07-25T20:23:12.152Z,89.00
2018-07-25T20:25:40.421Z,90.10
2018-07-25T20:28:08.733Z,89.70
2018-07-25T20:30:36.913Z,89.70
2018-07-25T20:33:05.040Z,89.50
2018-07-25T20:35:33.205Z,89.50
2018-07-25T20:38:01.352Z,89.90
2018-07-25T20:40:29.364Z,90.40
2018-07-25T20:42:57.566Z,89.80
2018-07-25T20:45:25.995Z,90.20
2018-07-25T20:47:54.382Z,90.10
2018-07-25T20:50:22.854Z,90.40
2018-07-25T20:52:50.912Z,90.60
2018-07-25T20:55:20.376Z,90.70
2018-07-25T20:58:04.809Z,90.90
2018-07-25T21:00:35.054Z,90.70
2018-07-25T21:03:04.741Z,90.60
2018-07-25T21:05:33.023Z,90.90
2018-07-25T21:08:01.170Z,90.50
2018-07-25T21:10:29.176Z,90.50
2018-07-25T21:12:57.271Z,91.10
2018-07-25T21:15:25.484Z,91.20
2018-07-25T21:17:53.527Z,91.30
2018-07-25T21:20:21.485Z,91.70
2018-07-25T21:22:49.483Z,91.40
2018-07-25T21:25:17.393Z,91.40
2018-07-25T21:27:45.320Z,91.00
2018-07-25T21:30:13.301Z,91.40
2018-07-25T21:32:41.225Z,91.40
2018-07-25T21:35:09.288Z,91.20
2018-07-25T21:37:37.243Z,91.50
2018-07-25T21:40:05.348Z,91.40
2018-07-25T21:42:33.247Z,91.70
2018-07-25T21:47:29.164Z,91.70
2018-07-25T21:49:57.081Z,92.10
2018-07-25T21:52:25.041Z,91.70
2018-07-25T21:54:53.092Z,92.10
2018-07-25T21:57:20.957Z,92.20
2018-07-25T21:59:48.876Z,92.30
2018-07-25T22:02:16.871Z,92.80
2018-07-25T22:04:44.819Z,92.80
2018-07-25T22:07:12.805Z,93.00
2018-07-25T22:09:40.737Z,93.00
2018-07-25T22:12:09.949Z,93.30
2018-07-25T22:14:37.914Z,93.30
2018-07-25T22:17:06.819Z,93.60
2018-07-25T22:19:35.686Z,93.60
2018-07-25T22:22:03.716Z,93.70
2018-07-25T22:26:59.444Z,93.90
2018-07-25T22:29:27.428Z,93.80
2018-07-25T22:31:55.406Z,94.50
2018-07-25T22:34:23.956Z,94.10
2018-07-25T22:36:51.907Z,94.30
2018-07-25T22:39:19.893Z,94.40
2018-07-25T22:41:47.861Z,94.60
2018-07-25T22:44:16.509Z,94.20
2018-07-25T22:46:44.578Z,94.20
2018-07-25T22:49:12.482Z,94.30
2018-07-25T22:51:40.438Z,94.00
2018-07-25T22:56:36.129Z,94.20
2018-07-25T22:59:04.339Z,94.40
2018-07-25T23:01:32.223Z,94.60
2018-07-25T23:04:00.212Z,94.90
2018-07-25T23:06:28.161Z,95.40
2018-07-25T23:08:56.188Z,95.40
2018-07-25T23:11:24.167Z,95.40
2018-07-25T23:13:52.118Z,94.90
2018-07-25T23:16:20.057Z,95.50
2018-07-25T23:18:47.975Z,95.50
2018-07-25T23:21:15.908Z,95.70
2018-07-25T23:23:43.804Z,95.80
2018-07-25T23:26:11.784Z,96.20
2018-07-25T23:28:39.715Z,96.30
2018-07-25T23:31:08.442Z,96.40
2018-07-25T23:33:36.334Z,96.50
2018-07-25T23:36:04.337Z,97.30
2018-07-25T23:38:32.233Z,96.60
2018-07-25T23:41:00.155Z,97.00
2018-07-25T23:43:28.161Z,97.40
2018-07-25T23:45:56.107Z,97.80
2018-07-25T23:48:24.059Z,97.40
2018-07-25T23:50:51.955Z,97.50
2018-07-25T23:53:19.951Z,97.40
2018-07-25T23:55:47.921Z,97.50
2018-07-25T23:58:16.499Z,97.60
